createdAt,value
2016-10-09T00:00:12.363Z,927.52
2016-10-09T00:00:26.724Z,927.54
2016-10-09T00:00:41.126Z,927.54
2016-10-09T00:00:55.520Z,927.5
2016-10-09T00:01:09.887Z,927.56
2016-10-09T00:01:24.307Z,927.55
2016-10-09T00:01:38.673Z,927.56
2016-10-09T00:01:52.995Z,927.55
2016-10-09T00:02:07.405Z,927.58
2016-10-09T00:02:21.850Z,927.61
2016-10-09T00:02:36.269Z,927.59
2016-10-09T00:02:50.645Z,927.59
2016-10-09T00:03:05.009Z,927.62
2016-10-09T00:03:19.586Z,927.58
2016-10-09T00:03:34.019Z,927.62
2016-10-09T00:03:48.418Z,927.6
2016-10-09T00:04:02.820Z,927.6
2016-10-09T00:04:17.182Z,927.66
2016-10-09T00:04:31.585Z,927.61
2016-10-09T00:04:45.972Z,927.6
2016-10-09T00:05:00.333Z,927.65
2016-10-09T00:05:14.755Z,927.64
2016-10-09T00:05:29.119Z,927.59
2016-10-09T00:05:43.492Z,927.67
2016-10-09T00:05:57.949Z,927.64
2016-10-09T00:06:12.718Z,927.69
2016-10-09T00:06:27.190Z,927.61
2016-10-09T00:06:41.548Z,927.66
2016-10-09T00:06:55.955Z,927.73
2016-10-09T00:07:10.345Z,927.69
2016-10-09T00:07:24.782Z,927.72
2016-10-09T00:07:39.118Z,927.69
2016-10-09T00:07:53.534Z,927.72
2016-10-09T00:08:07.908Z,927.71
2016-10-09T00:08:22.287Z,927.69
2016-10-09T00:08:36.743Z,927.67
2016-10-09T00:08:51.181Z,927.75
2016-10-09T00:09:05.640Z,927.75
2016-10-09T00:09:20.047Z,927.71
2016-10-09T00:09:34.489Z,927.72
2016-10-09T00:09:48.956Z,927.7
2016-10-09T00:10:03.315Z,927.72
2016-10-09T00:10:17.737Z,927.71
2016-10-09T00:10:32.064Z,927.66
2016-10-09T00:10:46.507Z,927.71
2016-10-09T00:11:00.842Z,927.75
2016-10-09T00:11:15.217Z,927.71
2016-10-09T00:11:29.627Z,927.7
2016-10-09T00:11:43.990Z,927.7
2016-10-09T00:11:58.395Z,927.74
2016-10-09T00:12:12.816Z,927.73
2016-10-09T00:12:27.167Z,927.74
2016-10-09T00:12:41.540Z,927.71
2016-10-09T00:12:55.930Z,927.7
2016-10-09T00:13:10.330Z,927.68
2016-10-09T00:13:24.735Z,927.73
2016-10-09T00:13:39.153Z,927.68
2016-10-09T00:13:53.554Z,927.73
2016-10-09T00:14:08.045Z,927.75
2016-10-09T00:14:22.403Z,927.72
2016-10-09T00:14:36.807Z,927.69
2016-10-09T00:14:51.206Z,927.75
2016-10-09T00:15:05.611Z,927.7
2016-10-09T00:15:20.035Z,927.71
2016-10-09T00:15:34.373Z,927.69
2016-10-09T00:15:48.780Z,927.72
2016-10-09T00:16:03.243Z,927.71
2016-10-09T00:16:17.706Z,927.7
2016-10-09T00:16:32.106Z,927.73
2016-10-09T00:16:46.612Z,927.71
2016-10-09T00:17:01.026Z,927.74
2016-10-09T00:17:15.451Z,927.7
2016-10-09T00:17:29.857Z,927.72
2016-10-09T00:17:44.263Z,927.71
2016-10-09T00:17:58.687Z,927.73
2016-10-09T00:18:13.100Z,927.69
2016-10-09T00:18:27.569Z,927.68
2016-10-09T00:18:41.912Z,927.73
2016-10-09T00:18:56.264Z,927.74
2016-10-09T00:19:10.619Z,927.73
2016-10-09T00:19:24.989Z,927.74
2016-10-09T00:19:39.361Z,927.75
2016-10-09T00:19:53.737Z,927.73
2016-10-09T00:20:08.163Z,927.75
2016-10-09T00:20:22.576Z,927.7
2016-10-09T00:20:36.946Z,927.78
2016-10-09T00:20:51.343Z,927.74
2016-10-09T00:21:05.770Z,927.73
2016-10-09T00:21:20.651Z,927.79
2016-10-09T00:21:35.125Z,927.74
2016-10-09T00:21:49.575Z,927.78
2016-10-09T00:22:03.961Z,927.76
2016-10-09T00:22:18.393Z,927.78
2016-10-09T00:22:32.802Z,927.75
2016-10-09T00:22:47.163Z,927.77
2016-10-09T00:23:01.513Z,927.76
2016-10-09T00:23:15.868Z,927.75
2016-10-09T00:23:30.168Z,927.76
2016-10-09T00:23:44.628Z,927.78
2016-10-09T00:23:58.993Z,927.78
2016-10-09T00:24:13.359Z,927.82
2016-10-09T00:24:27.779Z,927.84
2016-10-09T00:24:42.129Z,927.82
2016-10-09T00:24:56.496Z,927.82
2016-10-09T00:25:10.989Z,927.85
2016-10-09T00:25:25.388Z,927.82
2016-10-09T00:25:39.834Z,927.81
2016-10-09T00:25:54.321Z,927.85
2016-10-09T00:26:08.791Z,927.81
2016-10-09T00:26:23.145Z,927.83
2016-10-09T00:26:37.556Z,927.82
2016-10-09T00:26:51.933Z,927.84
2016-10-09T00:27:06.350Z,927.83
2016-10-09T00:27:20.775Z,927.81
2016-10-09T00:27:35.316Z,927.82
2016-10-09T00:27:49.676Z,927.82
2016-10-09T00:28:04.052Z,927.84
2016-10-09T00:28:18.408Z,927.84
2016-10-09T00:28:32.778Z,927.83
2016-10-09T00:28:47.346Z,927.84
2016-10-09T00:29:01.726Z,927.84
2016-10-09T00:29:16.120Z,927.87
2016-10-09T00:29:30.552Z,927.91
2016-10-09T00:29:45.124Z,927.88
2016-10-09T00:29:59.509Z,927.89
2016-10-09T00:30:14.057Z,927.87
2016-10-09T00:30:28.458Z,927.89
2016-10-09T00:30:42.833Z,927.9
2016-10-09T00:30:57.283Z,927.89
2016-10-09T00:31:11.655Z,927.89
2016-10-09T00:31:26.160Z,927.88
2016-10-09T00:31:40.547Z,927.9
2016-10-09T00:31:54.938Z,927.91
2016-10-09T00:32:09.295Z,927.94
2016-10-09T00:32:23.613Z,927.9
2016-10-09T00:32:38.018Z,927.88
2016-10-09T00:32:52.391Z,927.89
2016-10-09T00:33:06.803Z,927.9
2016-10-09T00:33:21.256Z,927.94
2016-10-09T00:33:35.673Z,927.9
2016-10-09T00:33:50.072Z,927.91
2016-10-09T00:34:04.417Z,927.89
2016-10-09T00:34:18.852Z,927.9
2016-10-09T00:34:33.280Z,927.93
2016-10-09T00:34:47.700Z,927.92
2016-10-09T00:35:02.145Z,927.93
2016-10-09T00:35:16.500Z,927.93
2016-10-09T00:35:30.856Z,927.92
2016-10-09T00:35:45.272Z,927.94
2016-10-09T00:35:59.626Z,927.95
2016-10-09T00:36:13.983Z,927.95
2016-10-09T00:36:28.649Z,927.91
2016-10-09T00:36:43.113Z,927.92
2016-10-09T00:36:57.586Z,927.92
2016-10-09T00:37:11.954Z,927.92
2016-10-09T00:37:26.321Z,927.9
2016-10-09T00:37:40.742Z,927.92
2016-10-09T00:37:55.050Z,927.92
2016-10-09T00:38:09.477Z,927.92
2016-10-09T00:38:23.878Z,927.92
2016-10-09T00:38:38.290Z,927.89
2016-10-09T00:38:52.738Z,927.92
2016-10-09T00:39:07.233Z,927.9
2016-10-09T00:39:21.566Z,927.9
2016-10-09T00:39:35.939Z,927.86
2016-10-09T00:39:50.217Z,927.88
2016-10-09T00:40:04.619Z,927.87
2016-10-09T00:40:19.017Z,927.87
2016-10-09T00:40:33.448Z,927.88
2016-10-09T00:40:47.888Z,927.89
2016-10-09T00:41:02.242Z,927.9
2016-10-09T00:41:16.705Z,927.87
2016-10-09T00:41:31.070Z,927.9
2016-10-09T00:41:45.485Z,927.88
2016-10-09T00:41:59.970Z,927.91
2016-10-09T00:42:14.486Z,927.91
2016-10-09T00:42:28.845Z,927.89
2016-10-09T00:42:43.263Z,927.9
2016-10-09T00:42:57.639Z,927.89
2016-10-09T00:43:12.033Z,927.9
2016-10-09T00:43:26.398Z,927.9
2016-10-09T00:43:40.749Z,927.89
2016-10-09T00:43:55.085Z,927.88
2016-10-09T00:44:09.481Z,927.9
2016-10-09T00:44:23.817Z,927.91
2016-10-09T00:44:38.194Z,927.89
2016-10-09T00:44:52.639Z,927.91
2016-10-09T00:45:07.067Z,927.89
2016-10-09T00:45:21.444Z,927.9
2016-10-09T00:45:35.807Z,927.93
2016-10-09T00:45:50.250Z,927.91
2016-10-09T00:46:04.667Z,927.92
2016-10-09T00:46:19.123Z,927.93
2016-10-09T00:46:33.628Z,927.93
2016-10-09T00:46:48.016Z,927.92
2016-10-09T00:47:02.589Z,927.91
2016-10-09T00:47:16.902Z,927.93
2016-10-09T00:47:31.326Z,927.91
2016-10-09T00:47:45.730Z,927.94
2016-10-09T00:48:00.110Z,927.94
2016-10-09T00:48:14.430Z,927.94
2016-10-09T00:48:28.890Z,927.92
2016-10-09T00:48:43.238Z,927.92
2016-10-09T00:48:57.630Z,927.9
2016-10-09T00:49:12.006Z,927.92
2016-10-09T00:49:26.411Z,927.93
2016-10-09T00:49:40.911Z,927.93
2016-10-09T00:49:55.289Z,927.94
2016-10-09T00:50:09.607Z,927.91
2016-10-09T00:50:24.023Z,927.91
2016-10-09T00:50:38.399Z,927.93
2016-10-09T00:50:52.791Z,927.95
2016-10-09T00:51:07.186Z,927.96
2016-10-09T00:51:21.560Z,927.95
2016-10-09T00:51:36.323Z,927.94
2016-10-09T00:51:50.653Z,927.91
2016-10-09T00:52:05.014Z,927.94
2016-10-09T00:52:19.420Z,927.96
2016-10-09T00:52:33.830Z,927.93
2016-10-09T00:52:48.240Z,927.94
2016-10-09T00:53:02.614Z,927.94
2016-10-09T00:53:16.978Z,927.95
2016-10-09T00:53:31.370Z,927.94
2016-10-09T00:53:45.738Z,927.96
2016-10-09T00:54:00.096Z,927.96
2016-10-09T00:54:14.507Z,927.95
2016-10-09T00:54:28.823Z,927.95
2016-10-09T00:54:43.261Z,927.97
2016-10-09T00:54:57.645Z,927.98
2016-10-09T00:55:12.094Z,927.97
2016-10-09T00:55:26.487Z,927.96
2016-10-09T00:55:40.853Z,927.93
2016-10-09T00:55:55.249Z,927.95
2016-10-09T00:56:09.660Z,927.94
2016-10-09T00:56:24.097Z,927.95
2016-10-09T00:56:38.571Z,927.97
2016-10-09T00:56:52.945Z,927.98
2016-10-09T00:57:07.322Z,927.94
2016-10-09T00:57:21.760Z,927.96
2016-10-09T00:57:36.110Z,927.94
2016-10-09T00:57:50.507Z,927.94
2016-10-09T00:58:04.882Z,927.95
2016-10-09T00:58:19.279Z,927.94
2016-10-09T00:58:33.676Z,927.93
2016-10-09T00:58:48.043Z,927.9
2016-10-09T00:59:02.456Z,927.94
2016-10-09T00:59:16.841Z,927.93
2016-10-09T00:59:31.287Z,927.95
2016-10-09T00:59:45.708Z,927.94
2016-10-09T01:00:00.107Z,927.96
2016-10-09T01:00:14.581Z,927.93
2016-10-09T01:00:29.019Z,927.91
2016-10-09T01:00:43.439Z,927.92
2016-10-09T01:00:57.788Z,927.9
2016-10-09T01:01:12.146Z,927.92
2016-10-09T01:01:26.487Z,927.93
2016-10-09T01:01:40.904Z,927.94
2016-10-09T01:01:55.295Z,927.93
2016-10-09T01:02:09.680Z,927.89
2016-10-09T01:02:24.125Z,927.93
2016-10-09T01:02:38.516Z,927.91
2016-10-09T01:02:52.938Z,927.96
2016-10-09T01:03:07.402Z,927.91
2016-10-09T01:03:21.888Z,927.95
2016-10-09T01:03:36.332Z,927.9
2016-10-09T01:03:50.721Z,927.91
2016-10-09T01:04:05.140Z,927.89
2016-10-09T01:04:19.525Z,927.93
2016-10-09T01:04:33.915Z,927.91
2016-10-09T01:04:48.321Z,927.94
2016-10-09T01:05:02.669Z,927.94
2016-10-09T01:05:17.039Z,927.94
2016-10-09T01:05:31.393Z,927.96
2016-10-09T01:05:45.747Z,927.93
2016-10-09T01:06:00.125Z,927.94
2016-10-09T01:06:14.510Z,927.96
2016-10-09T01:06:28.912Z,927.96
2016-10-09T01:06:43.583Z,927.98
2016-10-09T01:06:57.990Z,927.94
2016-10-09T01:07:12.353Z,927.95
2016-10-09T01:07:26.954Z,927.96
2016-10-09T01:07:41.378Z,927.96
2016-10-09T01:07:55.764Z,927.97
2016-10-09T01:08:10.160Z,927.94
2016-10-09T01:08:24.575Z,927.97
2016-10-09T01:08:38.969Z,927.96
2016-10-09T01:08:53.388Z,927.95
2016-10-09T01:09:07.783Z,927.99
2016-10-09T01:09:22.184Z,927.98
2016-10-09T01:09:36.553Z,927.95
2016-10-09T01:09:51.048Z,927.95
2016-10-09T01:10:05.545Z,927.97
2016-10-09T01:10:20.022Z,927.96
2016-10-09T01:10:34.397Z,927.94
2016-10-09T01:10:48.814Z,927.94
2016-10-09T01:11:03.183Z,927.98
2016-10-09T01:11:17.558Z,927.97
2016-10-09T01:11:31.995Z,927.99
2016-10-09T01:11:46.448Z,927.97
2016-10-09T01:12:00.855Z,927.94
2016-10-09T01:12:15.267Z,927.95
2016-10-09T01:12:29.721Z,927.95
2016-10-09T01:12:44.208Z,927.95
2016-10-09T01:12:58.685Z,927.92
2016-10-09T01:13:13.123Z,927.93
2016-10-09T01:13:27.524Z,927.94
2016-10-09T01:13:41.907Z,927.95
2016-10-09T01:13:56.297Z,927.96
2016-10-09T01:14:10.763Z,927.99
2016-10-09T01:14:25.057Z,927.94
2016-10-09T01:14:39.451Z,927.94
2016-10-09T01:14:53.931Z,927.93
2016-10-09T01:15:08.476Z,927.91
2016-10-09T01:15:22.947Z,928
2016-10-09T01:15:37.324Z,927.95
2016-10-09T01:15:51.677Z,927.9
2016-10-09T01:16:06.138Z,927.92
2016-10-09T01:16:20.525Z,927.98
2016-10-09T01:16:34.959Z,927.96
2016-10-09T01:16:49.344Z,927.95
2016-10-09T01:17:03.718Z,927.94
2016-10-09T01:17:18.187Z,927.96
2016-10-09T01:17:32.570Z,927.93
2016-10-09T01:17:46.938Z,927.96
2016-10-09T01:18:01.388Z,927.94
2016-10-09T01:18:15.801Z,927.93
2016-10-09T01:18:30.228Z,927.94
2016-10-09T01:18:44.717Z,927.94
2016-10-09T01:18:59.207Z,927.92
2016-10-09T01:19:13.563Z,927.94
2016-10-09T01:19:27.919Z,927.96
2016-10-09T01:19:42.275Z,927.96
2016-10-09T01:19:56.632Z,927.93
2016-10-09T01:20:10.986Z,927.93
2016-10-09T01:20:25.370Z,927.95
2016-10-09T01:20:39.698Z,927.95
2016-10-09T01:20:54.062Z,927.95
2016-10-09T01:21:08.421Z,927.97
2016-10-09T01:21:22.877Z,927.99
2016-10-09T01:21:37.317Z,927.97
2016-10-09T01:21:52.141Z,927.91
2016-10-09T01:22:06.538Z,927.95
2016-10-09T01:22:20.905Z,927.97
2016-10-09T01:22:35.368Z,927.96
2016-10-09T01:22:49.790Z,927.93
2016-10-09T01:23:04.210Z,927.97
2016-10-09T01:23:18.589Z,927.93
2016-10-09T01:23:32.988Z,927.9
2016-10-09T01:23:47.389Z,927.89
2016-10-09T01:24:01.845Z,927.9
2016-10-09T01:24:16.856Z,927.92
2016-10-09T01:24:31.274Z,927.93
2016-10-09T01:24:45.692Z,927.92
2016-10-09T01:25:00.088Z,927.93
2016-10-09T01:25:14.533Z,927.93
2016-10-09T01:25:28.948Z,927.92
2016-10-09T01:25:43.291Z,927.88
2016-10-09T01:25:57.684Z,927.9
2016-10-09T01:26:12.092Z,927.92
2016-10-09T01:26:26.535Z,927.92
2016-10-09T01:26:40.882Z,927.9
2016-10-09T01:26:55.678Z,927.91
2016-10-09T01:27:10.092Z,927.88
2016-10-09T01:27:24.472Z,927.88
2016-10-09T01:27:38.854Z,927.89
2016-10-09T01:27:53.263Z,927.92
2016-10-09T01:28:07.665Z,927.92
2016-10-09T01:28:22.108Z,927.9
2016-10-09T01:28:36.582Z,927.9
2016-10-09T01:28:50.956Z,927.9
2016-10-09T01:29:05.388Z,927.92
2016-10-09T01:29:19.770Z,927.92
2016-10-09T01:29:34.147Z,927.9
2016-10-09T01:29:48.501Z,927.91
2016-10-09T01:30:02.877Z,927.93
2016-10-09T01:30:17.294Z,927.94
2016-10-09T01:30:31.778Z,927.92
2016-10-09T01:30:46.191Z,927.9
2016-10-09T01:31:00.579Z,927.93
2016-10-09T01:31:14.948Z,927.9
2016-10-09T01:31:29.345Z,927.91
2016-10-09T01:31:43.749Z,927.91
2016-10-09T01:31:58.169Z,927.91
2016-10-09T01:32:12.597Z,927.92
2016-10-09T01:32:26.940Z,927.9
2016-10-09T01:32:41.469Z,927.86
2016-10-09T01:32:55.808Z,927.87
2016-10-09T01:33:10.288Z,927.89
2016-10-09T01:33:24.730Z,927.9
2016-10-09T01:33:39.175Z,927.88
2016-10-09T01:33:53.680Z,927.93
2016-10-09T01:34:08.110Z,927.88
2016-10-09T01:34:22.509Z,927.88
2016-10-09T01:34:36.981Z,927.91
2016-10-09T01:34:51.390Z,927.87
2016-10-09T01:35:05.818Z,927.9
2016-10-09T01:35:20.158Z,927.93
2016-10-09T01:35:34.560Z,927.88
2016-10-09T01:35:49.236Z,927.9
2016-10-09T01:36:03.618Z,927.93
2016-10-09T01:36:18.105Z,927.91
2016-10-09T01:36:32.614Z,927.91
2016-10-09T01:36:47.074Z,927.86
2016-10-09T01:37:01.779Z,927.91
2016-10-09T01:37:16.292Z,927.9
2016-10-09T01:37:30.757Z,927.91
2016-10-09T01:37:45.215Z,927.9
2016-10-09T01:37:59.596Z,927.88
2016-10-09T01:38:14.037Z,927.88
2016-10-09T01:38:28.460Z,927.89
2016-10-09T01:38:42.849Z,927.87
2016-10-09T01:38:57.295Z,927.91
2016-10-09T01:39:11.663Z,927.9
2016-10-09T01:39:26.167Z,927.88
2016-10-09T01:39:40.562Z,927.89
2016-10-09T01:39:55.006Z,927.89
2016-10-09T01:40:09.696Z,927.87
2016-10-09T01:40:24.100Z,927.89
2016-10-09T01:40:38.480Z,927.85
2016-10-09T01:40:52.893Z,927.86
2016-10-09T01:41:07.264Z,927.85
2016-10-09T01:41:21.588Z,927.87
2016-10-09T01:41:36.056Z,927.88
2016-10-09T01:41:50.512Z,927.87
2016-10-09T01:42:04.845Z,927.83
2016-10-09T01:42:19.201Z,927.85
2016-10-09T01:42:33.725Z,927.87
2016-10-09T01:42:48.086Z,927.83
2016-10-09T01:43:02.472Z,927.86
2016-10-09T01:43:16.909Z,927.85
2016-10-09T01:43:31.244Z,927.83
2016-10-09T01:43:45.617Z,927.84
2016-10-09T01:44:00.021Z,927.83
2016-10-09T01:44:14.468Z,927.82
2016-10-09T01:44:28.869Z,927.81
2016-10-09T01:44:43.231Z,927.84
2016-10-09T01:44:57.831Z,927.83
2016-10-09T01:45:12.270Z,927.85
2016-10-09T01:45:26.730Z,927.84
2016-10-09T01:45:41.141Z,927.81
2016-10-09T01:45:55.538Z,927.83
2016-10-09T01:46:09.959Z,927.84
2016-10-09T01:46:24.332Z,927.86
2016-10-09T01:46:38.694Z,927.81
2016-10-09T01:46:53.222Z,927.83
2016-10-09T01:47:07.638Z,927.81
2016-10-09T01:47:22.058Z,927.84
2016-10-09T01:47:36.483Z,927.85
2016-10-09T01:47:50.853Z,927.87
2016-10-09T01:48:05.328Z,927.85
2016-10-09T01:48:19.705Z,927.88
2016-10-09T01:48:34.177Z,927.87
2016-10-09T01:48:48.577Z,927.87
2016-10-09T01:49:03.062Z,927.88
2016-10-09T01:49:17.444Z,927.91
2016-10-09T01:49:31.885Z,927.88
2016-10-09T01:49:46.573Z,927.89
2016-10-09T01:50:01.218Z,927.87
2016-10-09T01:50:15.643Z,927.85
2016-10-09T01:50:30.010Z,927.89
2016-10-09T01:50:44.483Z,927.85
2016-10-09T01:50:58.977Z,927.87
2016-10-09T01:51:13.345Z,927.83
2016-10-09T01:51:27.775Z,927.87
2016-10-09T01:51:42.223Z,927.87
2016-10-09T01:51:56.649Z,927.88
2016-10-09T01:52:11.570Z,927.87
2016-10-09T01:52:25.983Z,927.89
2016-10-09T01:52:40.410Z,927.85
2016-10-09T01:52:54.867Z,927.85
2016-10-09T01:53:09.287Z,927.83
2016-10-09T01:53:23.684Z,927.83
2016-10-09T01:53:38.107Z,927.86
2016-10-09T01:53:52.506Z,927.86
2016-10-09T01:54:06.893Z,927.85
2016-10-09T01:54:21.299Z,927.84
2016-10-09T01:54:35.697Z,927.85
2016-10-09T01:54:50.208Z,927.82
2016-10-09T01:55:04.670Z,927.86
2016-10-09T01:55:19.128Z,927.88
2016-10-09T01:55:33.582Z,927.91
2016-10-09T01:55:47.965Z,927.88
2016-10-09T01:56:02.318Z,927.91
2016-10-09T01:56:16.661Z,927.86
2016-10-09T01:56:31.089Z,927.88
2016-10-09T01:56:45.438Z,927.87
2016-10-09T01:56:59.904Z,927.88
2016-10-09T01:57:14.271Z,927.86
2016-10-09T01:57:28.612Z,927.89
2016-10-09T01:57:42.998Z,927.85
2016-10-09T01:57:57.263Z,927.84
2016-10-09T01:58:11.642Z,927.87
2016-10-09T01:58:26.012Z,927.87
2016-10-09T01:58:40.445Z,927.85
2016-10-09T01:58:54.930Z,927.86
2016-10-09T01:59:09.332Z,927.87
2016-10-09T01:59:23.765Z,927.82
2016-10-09T01:59:38.200Z,927.86
2016-10-09T01:59:52.612Z,927.84
2016-10-09T02:00:07.107Z,927.89
2016-10-09T02:00:21.596Z,927.86
2016-10-09T02:00:36.082Z,927.85
2016-10-09T02:00:50.455Z,927.83
2016-10-09T02:01:05.066Z,927.83
2016-10-09T02:01:19.525Z,927.87
2016-10-09T02:01:33.859Z,927.87
2016-10-09T02:01:48.289Z,927.89
2016-10-09T02:02:02.636Z,927.83
2016-10-09T02:02:17.059Z,927.85
2016-10-09T02:02:31.405Z,927.86
2016-10-09T02:02:45.860Z,927.86
2016-10-09T02:03:00.286Z,927.84
2016-10-09T02:03:14.754Z,927.87
2016-10-09T02:03:29.153Z,927.85
2016-10-09T02:03:43.511Z,927.84
2016-10-09T02:03:57.889Z,927.84
2016-10-09T02:04:12.248Z,927.86
2016-10-09T02:04:26.740Z,927.84
2016-10-09T02:04:41.253Z,927.83
2016-10-09T02:04:55.607Z,927.84
2016-10-09T02:05:10.034Z,927.86
2016-10-09T02:05:24.551Z,927.85
2016-10-09T02:05:38.956Z,927.87
2016-10-09T02:05:53.361Z,927.83
2016-10-09T02:06:07.810Z,927.85
2016-10-09T02:06:22.287Z,927.86
2016-10-09T02:06:36.780Z,927.85
2016-10-09T02:06:51.184Z,927.86
2016-10-09T02:07:05.596Z,927.86
2016-10-09T02:07:20.316Z,927.85
2016-10-09T02:07:34.765Z,927.85
2016-10-09T02:07:49.165Z,927.88
2016-10-09T02:08:03.622Z,927.86
2016-10-09T02:08:18.017Z,927.87
2016-10-09T02:08:32.417Z,927.89
2016-10-09T02:08:46.776Z,927.89
2016-10-09T02:09:01.124Z,927.89
2016-10-09T02:09:15.507Z,927.89
2016-10-09T02:09:29.961Z,927.87
2016-10-09T02:09:44.502Z,927.87
2016-10-09T02:09:58.910Z,927.86
2016-10-09T02:10:13.325Z,927.89
2016-10-09T02:10:27.805Z,927.87
2016-10-09T02:10:42.280Z,927.87
2016-10-09T02:10:56.725Z,927.86
2016-10-09T02:11:11.165Z,927.88
2016-10-09T02:11:25.523Z,927.86
2016-10-09T02:11:39.887Z,927.86
2016-10-09T02:11:54.294Z,927.89
2016-10-09T02:12:08.702Z,927.87
2016-10-09T02:12:23.069Z,927.85
2016-10-09T02:12:37.442Z,927.87
2016-10-09T02:12:51.839Z,927.88
2016-10-09T02:13:06.344Z,927.85
2016-10-09T02:13:20.773Z,927.89
2016-10-09T02:13:35.157Z,927.83
2016-10-09T02:13:49.591Z,927.87
2016-10-09T02:14:04.004Z,927.86
2016-10-09T02:14:18.405Z,927.83
2016-10-09T02:14:32.817Z,927.85
2016-10-09T02:14:47.256Z,927.87
2016-10-09T02:15:01.633Z,927.86
2016-10-09T02:15:16.078Z,927.85
2016-10-09T02:15:30.610Z,927.85
2016-10-09T02:15:45.017Z,927.88
2016-10-09T02:15:59.389Z,927.85
2016-10-09T02:16:13.790Z,927.87
2016-10-09T02:16:28.178Z,927.84
2016-10-09T02:16:42.544Z,927.87
2016-10-09T02:16:56.981Z,927.86
2016-10-09T02:17:11.412Z,927.82
2016-10-09T02:17:25.775Z,927.87
2016-10-09T02:17:40.200Z,927.87
2016-10-09T02:17:54.628Z,927.83
2016-10-09T02:18:09.018Z,927.84
2016-10-09T02:18:23.603Z,927.84
2016-10-09T02:18:38.023Z,927.85
2016-10-09T02:18:52.487Z,927.84
2016-10-09T02:19:06.891Z,927.83
2016-10-09T02:19:21.321Z,927.84
2016-10-09T02:19:35.743Z,927.84
2016-10-09T02:19:50.140Z,927.85
2016-10-09T02:20:04.563Z,927.82
2016-10-09T02:20:18.918Z,927.83
2016-10-09T02:20:33.290Z,927.82
2016-10-09T02:20:47.668Z,927.84
2016-10-09T02:21:01.991Z,927.84
2016-10-09T02:21:16.399Z,927.84
2016-10-09T02:21:30.769Z,927.83
2016-10-09T02:21:45.343Z,927.82
2016-10-09T02:21:59.787Z,927.84
2016-10-09T02:22:14.158Z,927.82
2016-10-09T02:22:28.893Z,927.84
2016-10-09T02:22:43.358Z,927.85
2016-10-09T02:22:57.799Z,927.84
2016-10-09T02:23:12.295Z,927.83
2016-10-09T02:23:26.708Z,927.81
2016-10-09T02:23:41.298Z,927.83
2016-10-09T02:23:55.678Z,927.87
2016-10-09T02:24:10.035Z,927.83
2016-10-09T02:24:24.570Z,927.86
2016-10-09T02:24:38.998Z,927.84
2016-10-09T02:24:53.399Z,927.82
2016-10-09T02:25:07.868Z,927.85
2016-10-09T02:25:22.354Z,927.85
2016-10-09T02:25:36.849Z,927.86
2016-10-09T02:25:51.394Z,927.84
2016-10-09T02:26:05.794Z,927.85
2016-10-09T02:26:20.243Z,927.81
2016-10-09T02:26:34.628Z,927.84
2016-10-09T02:26:49.000Z,927.86
2016-10-09T02:27:03.336Z,927.84
2016-10-09T02:27:17.668Z,927.87
2016-10-09T02:27:32.056Z,927.88
2016-10-09T02:27:46.446Z,927.85
2016-10-09T02:28:00.812Z,927.87
2016-10-09T02:28:15.290Z,927.86
2016-10-09T02:28:29.645Z,927.84
2016-10-09T02:28:44.112Z,927.85
2016-10-09T02:28:58.553Z,927.83
2016-10-09T02:29:12.975Z,927.85
2016-10-09T02:29:27.452Z,927.85
2016-10-09T02:29:41.847Z,927.85
2016-10-09T02:29:56.271Z,927.82
2016-10-09T02:30:10.717Z,927.87
2016-10-09T02:30:25.088Z,927.86
2016-10-09T02:30:39.474Z,927.87
2016-10-09T02:30:53.898Z,927.88
2016-10-09T02:31:08.290Z,927.87
2016-10-09T02:31:22.676Z,927.88
2016-10-09T02:31:37.042Z,927.88
2016-10-09T02:31:51.431Z,927.88
2016-10-09T02:32:05.895Z,927.9
2016-10-09T02:32:20.246Z,927.85
2016-10-09T02:32:34.668Z,927.86
2016-10-09T02:32:49.060Z,927.87
2016-10-09T02:33:03.459Z,927.85
2016-10-09T02:33:17.901Z,927.83
2016-10-09T02:33:32.331Z,927.82
2016-10-09T02:33:46.753Z,927.82
2016-10-09T02:34:01.185Z,927.84
2016-10-09T02:34:15.660Z,927.87
2016-10-09T02:34:30.061Z,927.88
2016-10-09T02:34:44.445Z,927.84
2016-10-09T02:34:58.825Z,927.84
2016-10-09T02:35:13.188Z,927.85
2016-10-09T02:35:27.603Z,927.84
2016-10-09T02:35:42.011Z,927.87
2016-10-09T02:35:56.397Z,927.84
2016-10-09T02:36:10.751Z,927.83
2016-10-09T02:36:25.193Z,927.83
2016-10-09T02:36:39.576Z,927.83
2016-10-09T02:36:54.065Z,927.89
2016-10-09T02:37:08.438Z,927.87
2016-10-09T02:37:22.824Z,927.86
2016-10-09T02:37:37.575Z,927.85
2016-10-09T02:37:51.967Z,927.86
2016-10-09T02:38:06.334Z,927.83
2016-10-09T02:38:20.647Z,927.82
2016-10-09T02:38:35.038Z,927.85
2016-10-09T02:38:49.386Z,927.86
2016-10-09T02:39:03.812Z,927.84
2016-10-09T02:39:18.157Z,927.88
2016-10-09T02:39:32.485Z,927.89
2016-10-09T02:39:46.920Z,927.85
2016-10-09T02:40:01.274Z,927.87
2016-10-09T02:40:15.678Z,927.87
2016-10-09T02:40:30.087Z,927.85
2016-10-09T02:40:44.479Z,927.87
2016-10-09T02:40:58.841Z,927.87
2016-10-09T02:41:13.179Z,927.83
2016-10-09T02:41:27.464Z,927.84
2016-10-09T02:41:41.948Z,927.87
2016-10-09T02:41:56.296Z,927.88
2016-10-09T02:42:10.814Z,927.82
2016-10-09T02:42:25.296Z,927.87
2016-10-09T02:42:39.736Z,927.88
2016-10-09T02:42:54.239Z,927.85
2016-10-09T02:43:08.697Z,927.82
2016-10-09T02:43:23.236Z,927.87
2016-10-09T02:43:37.687Z,927.89
2016-10-09T02:43:52.052Z,927.85
2016-10-09T02:44:06.511Z,927.86
2016-10-09T02:44:20.903Z,927.9
2016-10-09T02:44:35.342Z,927.85
2016-10-09T02:44:49.688Z,927.86
2016-10-09T02:45:04.072Z,927.85
2016-10-09T02:45:18.445Z,927.86
2016-10-09T02:45:32.900Z,927.88
2016-10-09T02:45:47.395Z,927.86
2016-10-09T02:46:01.780Z,927.85
2016-10-09T02:46:16.225Z,927.87
2016-10-09T02:46:30.614Z,927.86
2016-10-09T02:46:44.978Z,927.86
2016-10-09T02:46:59.409Z,927.86
2016-10-09T02:47:13.877Z,927.87
2016-10-09T02:47:28.306Z,927.85
2016-10-09T02:47:42.716Z,927.85
2016-10-09T02:47:57.125Z,927.87
2016-10-09T02:48:11.629Z,927.86
2016-10-09T02:48:26.017Z,927.85
2016-10-09T02:48:40.374Z,927.85
2016-10-09T02:48:54.710Z,927.86
2016-10-09T02:49:09.111Z,927.84
2016-10-09T02:49:23.546Z,927.88
2016-10-09T02:49:38.017Z,927.84
2016-10-09T02:49:52.466Z,927.87
2016-10-09T02:50:06.863Z,927.85
2016-10-09T02:50:21.306Z,927.85
2016-10-09T02:50:35.707Z,927.85
2016-10-09T02:50:50.042Z,927.87
2016-10-09T02:51:04.536Z,927.87
2016-10-09T02:51:18.952Z,927.91
2016-10-09T02:51:33.441Z,927.88
2016-10-09T02:51:47.885Z,927.86
2016-10-09T02:52:02.308Z,927.86
2016-10-09T02:52:16.715Z,927.86
2016-10-09T02:52:31.153Z,927.84
2016-10-09T02:52:45.900Z,927.84
2016-10-09T02:53:00.280Z,927.84
2016-10-09T02:53:14.670Z,927.86
2016-10-09T02:53:29.082Z,927.86
2016-10-09T02:53:43.505Z,927.84
2016-10-09T02:53:57.813Z,927.83
2016-10-09T02:54:12.204Z,927.85
2016-10-09T02:54:26.652Z,927.85
2016-10-09T02:54:41.020Z,927.81
2016-10-09T02:54:55.470Z,927.83
2016-10-09T02:55:09.936Z,927.84
2016-10-09T02:55:24.325Z,927.82
2016-10-09T02:55:38.669Z,927.83
2016-10-09T02:55:53.000Z,927.84
2016-10-09T02:56:07.452Z,927.8
2016-10-09T02:56:21.825Z,927.79
2016-10-09T02:56:36.157Z,927.81
2016-10-09T02:56:50.550Z,927.81
2016-10-09T02:57:04.940Z,927.79
2016-10-09T02:57:19.370Z,927.83
2016-10-09T02:57:33.697Z,927.83
2016-10-09T02:57:48.041Z,927.84
2016-10-09T02:58:02.437Z,927.78
2016-10-09T02:58:16.878Z,927.83
2016-10-09T02:58:31.325Z,927.82
2016-10-09T02:58:45.769Z,927.81
2016-10-09T02:59:00.240Z,927.82
2016-10-09T02:59:14.627Z,927.83
2016-10-09T02:59:29.036Z,927.8
2016-10-09T02:59:43.457Z,927.81
2016-10-09T02:59:57.842Z,927.81
2016-10-09T03:00:12.198Z,927.8
2016-10-09T03:00:26.616Z,927.8